Terminal Aerodrome Forecast
Issued by NWS

Home | Current Version | Previous Version | Text Only | Print | Product List | Glossary On
Versions: 1 2 3 4 5 6 7 8 9 10 11 12 13 14 15
000
FTUS46 KSGX 181300 AAA
TAFTRM
TAF AMD
KTRM 181338Z 1814/1912 VRB04KT 3SM BR SKC
      TEMPO 1814/1815 1SM BR
     FM181630 VRB05KT P6SM SCT090=

USA.gov is the U.S. government's official web portal to all federal, state and local government web resources and services.